Winston Salem, NC (27106)

11:54 AM EDT on May 27, 2015 (GMT -0400)
Sunny Dell Lakes | | Change Station
CLOSE
Current Station
Personal Weather Station
Location: Winston-Salem, NC
Elevation: 774 ft
Nearby Weather Stations

Elev 774 ft 36.14 °N, 80.33 °W | Updated 4 seconds ago

Partly Cloudy
Partly Cloudy
74.2 °F
Feels Like 75 °F
N
0.0
Wind Variable Wind from NNW
Gusts 1.0 mph

Today
High -- | Low -- °F
--% Chance of Precip.
Yesterday
High -- | Low -- °F
Precip. -- in
6:07 AM 8:29 PM
Waxing Gibbous, 68% visible
Pressure 30.27 in
Visibility 10.0 miles
Clouds Scattered Clouds 1900 ft
Heat Index 75 °F
Dew Point 66 °F
Humidity 77%
Rainfall 0.00 in
Snow Depth Not available.
UV 3.3 out of 12
Pollen 6.40 out of 12
Air Quality Not available.
Flu Activity No Activity
SPECI KINT 271519Z 22006KT 10SM SCT019 22/17 A3027 RMK AO2 T02220172

More Conditions Fewer Conditions

Pressure 30.27 in
Visibility 10.0 miles
Clouds Scattered Clouds 1900 ft
Heat Index 75 °F
Dew Point 66 °F
Humidity 77%
Rainfall 0.00 in
Snow Depth Not available.
UV 3.3 out of 12
Pollen 6.40 out of 12
Air Quality Not available.
Flu Activity No Activity
SPECI KINT 271519Z 22006KT 10SM SCT019 22/17 A3027 RMK AO2 T02220172

More Conditions Fewer Conditions

10-Day Weather Forecast

Almanac

Astronomy

May. 27, 2015 Rise Set
Actual Time
Civil Twilight
Nautical Twilight
Astronomical Twilight
Moon
Length of Visible Light
Length of Day
Tomorrow will be .
, % of the Moon is Illuminated

Today's Extremes

State Highs State Lows

Community

WunderPhotos

Upload Photos

1,824,699 photos uploaded!

WunderBlogs® & News

Nearby

Air Quality

  Air Quality AQ Index Pollutant
Not available.

Snow Depth

Station Depth Elevation

Earthquake Activity

City Distance Mag. Time & Date
Minimum magnitude displayed is 2.5.

Coastal Water Temperatures

Place Temperature

Stations

Nearby Weather Stations

Station Location Temp. Windchill Dew Point Humidity Wind Precip. Elev Updated Type